sensor_id;sensor_type;location;lat;lon;timestamp;pressure;altitude;pressure_sealevel;temperature;humidity
66627;BME280;53498;50.422;14.912;2022-11-02T00:00:49;99613.34;;;10.38;100.00
66627;BME280;53498;50.422;14.912;2022-11-02T00:03:28;99624.53;;;10.30;100.00
66627;BME280;53498;50.422;14.912;2022-11-02T00:05:54;99626.25;;;10.29;100.00
66627;BME280;53498;50.422;14.912;2022-11-02T00:08:19;99625.47;;;10.39;100.00
66627;BME280;53498;50.422;14.912;2022-11-02T00:10:45;99621.97;;;10.34;100.00
66627;BME280;53498;50.422;14.912;2022-11-02T00:13:10;99618.47;;;10.32;100.00
66627;BME280;53498;50.422;14.912;2022-11-02T00:15:36;99620.09;;;10.24;100.00
66627;BME280;53498;50.422;14.912;2022-11-02T00:18:04;99614.94;;;10.27;100.00
66627;BME280;53498;50.422;14.912;2022-11-02T00:20:37;99603.75;;;10.33;100.00
66627;BME280;53498;50.422;14.912;2022-11-02T00:23:04;99612.41;;;10.33;100.00
66627;BME280;53498;50.422;14.912;2022-11-02T00:25:32;99617.63;;;10.33;100.00
66627;BME280;53498;50.422;14.912;2022-11-02T00:27:58;99627.31;;;10.47;100.00
66627;BME280;53498;50.422;14.912;2022-11-02T00:30:24;99634.34;;;10.60;100.00
66627;BME280;53498;50.422;14.912;2022-11-02T00:32:50;99635.19;;;10.57;100.00
66627;BME280;53498;50.422;14.912;2022-11-02T00:35:16;99627.31;;;10.48;100.00
66627;BME280;53498;50.422;14.912;2022-11-02T00:37:41;99629.91;;;10.48;100.00
66627;BME280;53498;50.422;14.912;2022-11-02T00:40:07;99632.47;;;10.44;100.00
66627;BME280;53498;50.422;14.912;2022-11-02T00:42:33;99640.25;;;10.42;100.00
66627;BME280;53498;50.422;14.912;2022-11-02T00:44:58;99638.44;;;10.36;100.00
66627;BME280;53498;50.422;14.912;2022-11-02T00:47:24;99634.88;;;10.27;100.00
66627;BME280;53498;50.422;14.912;2022-11-02T00:49:49;99638.19;;;10.13;100.00
66627;BME280;53498;50.422;14.912;2022-11-02T00:52:15;99636.53;;;10.20;100.00
66627;BME280;53498;50.422;14.912;2022-11-02T00:54:40;99642.66;;;10.25;100.00
66627;BME280;53498;50.422;14.912;2022-11-02T00:57:06;99637.63;;;10.37;100.00
66627;BME280;53498;50.422;14.912;2022-11-02T00:59:31;99640.22;;;10.39;100.00
66627;BME280;53498;50.422;14.912;2022-11-02T01:01:57;99642.66;;;10.25;100.00
66627;BME280;53498;50.422;14.912;2022-11-02T01:04:22;99638.25;;;10.21;100.00
66627;BME280;53498;50.422;14.912;2022-11-02T01:06:48;99643.38;;;10.15;100.00
66627;BME280;53498;50.422;14.912;2022-11-02T01:09:14;99639.03;;;10.09;100.00
66627;BME280;53498;50.422;14.912;2022-11-02T01:11:40;99639.88;;;10.10;100.00
66627;BME280;53498;50.422;14.912;2022-11-02T01:14:11;99639.84;;;10.08;100.00
66627;BME280;53498;50.422;14.912;2022-11-02T01:16:38;99632.84;;;10.03;100.00
66627;BME280;53498;50.422;14.912;2022-11-02T01:19:06;99641.50;;;10.02;100.00
66627;BME280;53498;50.422;14.912;2022-11-02T01:21:31;99640.78;;;10.15;100.00
66627;BME280;53498;50.422;14.912;2022-11-02T01:23:57;99642.63;;;10.22;100.00
66627;BME280;53498;50.422;14.912;2022-11-02T01:26:22;99643.47;;;10.21;100.00
66627;BME280;53498;50.422;14.912;2022-11-02T01:28:52;99639.91;;;10.13;100.00
66627;BME280;53498;50.422;14.912;2022-11-02T01:31:18;99639.06;;;10.14;100.00
66627;BME280;53498;50.422;14.912;2022-11-02T01:33:44;99635.69;;;10.23;100.00
66627;BME280;53498;50.422;14.912;2022-11-02T01:36:11;99634.75;;;10.17;100.00
66627;BME280;53498;50.422;14.912;2022-11-02T01:38:37;99629.41;;;10.04;100.00
66627;BME280;53498;50.422;14.912;2022-11-02T01:41:03;99626.78;;;10.02;100.00
66627;BME280;53498;50.422;14.912;2022-11-02T01:43:31;99628.69;;;10.17;100.00
66627;BME280;53498;50.422;14.912;2022-11-02T01:51:19;99626.28;;;10.34;100.00
66627;BME280;53498;50.422;14.912;2022-11-02T01:53:46;99628.91;;;10.35;100.00
66627;BME280;53498;50.422;14.912;2022-11-02T01:56:15;99625.38;;;10.29;100.00
66627;BME280;53498;50.422;14.912;2022-11-02T01:58:44;99620.94;;;10.18;100.00
66627;BME280;53498;50.422;14.912;2022-11-02T02:01:10;99615.72;;;10.20;100.00
66627;BME280;53498;50.422;14.912;2022-11-02T02:03:36;99620.16;;;10.27;100.00
66627;BME280;53498;50.422;14.912;2022-11-02T02:06:12;99627.88;;;10.23;100.00
66627;BME280;53498;50.422;14.912;2022-11-02T02:08:41;99626.22;;;10.26;100.00
66627;BME280;53498;50.422;14.912;2022-11-02T02:13:50;99622.75;;;10.27;100.00
66627;BME280;53498;50.422;14.912;2022-11-02T02:22:52;99621.25;;;10.51;100.00
66627;BME280;53498;50.422;14.912;2022-11-02T02:25:49;99623.84;;;10.49;100.00
66627;BME280;53498;50.422;14.912;2022-11-02T02:31:09;99628.00;;;10.33;100.00
66627;BME280;53498;50.422;14.912;2022-11-02T02:36:29;99632.38;;;10.34;100.00
66627;BME280;53498;50.422;14.912;2022-11-02T02:39:07;99631.72;;;10.57;100.00
66627;BME280;53498;50.422;14.912;2022-11-02T02:41:39;99631.84;;;10.69;100.00
66627;BME280;53498;50.422;14.912;2022-11-02T02:44:26;99630.13;;;10.74;100.00
66627;BME280;53498;50.422;14.912;2022-11-02T02:47:04;99626.63;;;10.69;100.00
66627;BME280;53498;50.422;14.912;2022-11-02T02:49:37;99622.28;;;10.70;100.00
66627;BME280;53498;50.422;14.912;2022-11-02T02:52:05;99625.75;;;10.70;100.00
66627;BME280;53498;50.422;14.912;2022-11-02T02:54:37;99619.69;;;10.71;100.00
66627;BME280;53498;50.422;14.912;2022-11-02T02:57:08;99629.16;;;10.64;100.00
66627;BME280;53498;50.422;14.912;2022-11-02T02:59:40;99616.19;;;10.66;100.00
66627;BME280;53498;50.422;14.912;2022-11-02T03:02:10;99617.94;;;10.67;100.00
66627;BME280;53498;50.422;14.912;2022-11-02T03:04:36;99622.22;;;10.65;100.00
66627;BME280;53498;50.422;14.912;2022-11-02T03:07:02;99628.31;;;10.64;100.00
66627;BME280;53498;50.422;14.912;2022-11-02T03:09:44;99627.47;;;10.68;100.00
66627;BME280;53498;50.422;14.912;2022-11-02T03:12:30;99616.16;;;10.64;100.00
66627;BME280;53498;50.422;14.912;2022-11-02T03:17:31;99626.44;;;10.49;100.00
66627;BME280;53498;50.422;14.912;2022-11-02T03:25:21;99627.44;;;10.65;100.00
66627;BME280;53498;50.422;14.912;2022-11-02T03:30:41;99629.97;;;10.54;100.00
66627;BME280;53498;50.422;14.912;2022-11-02T03:33:17;99634.13;;;10.35;100.00
66627;BME280;53498;50.422;14.912;2022-11-02T03:35:53;99631.56;;;10.41;100.00
66627;BME280;53498;50.422;14.912;2022-11-02T03:38:53;99636.75;;;10.40;100.00
66627;BME280;53498;50.422;14.912;2022-11-02T03:41:21;99638.41;;;10.32;100.00
66627;BME280;53498;50.422;14.912;2022-11-02T03:43:54;99643.66;;;10.35;100.00
66627;BME280;53498;50.422;14.912;2022-11-02T03:46:20;99642.78;;;10.34;100.00
66627;BME280;53498;50.422;14.912;2022-11-02T03:48:49;99643.81;;;10.50;100.00
66627;BME280;53498;50.422;14.912;2022-11-02T03:51:19;99642.03;;;10.48;100.00
66627;BME280;53498;50.422;14.912;2022-11-02T03:54:09;99650.78;;;10.59;100.00
66627;BME280;53498;50.422;14.912;2022-11-02T03:56:38;99649.13;;;10.62;100.00
66627;BME280;53498;50.422;14.912;2022-11-02T03:59:06;99643.88;;;10.61;100.00
66627;BME280;53498;50.422;14.912;2022-11-02T04:01:36;99640.28;;;10.45;100.00
66627;BME280;53498;50.422;14.912;2022-11-02T04:04:04;99641.13;;;10.42;100.00
66627;BME280;53498;50.422;14.912;2022-11-02T04:06:30;99644.50;;;10.32;100.00
66627;BME280;53498;50.422;14.912;2022-11-02T04:08:56;99635.88;;;10.39;100.00
66627;BME280;53498;50.422;14.912;2022-11-02T04:11:22;99639.34;;;10.38;100.00
66627;BME280;53498;50.422;14.912;2022-11-02T04:14:06;99642.88;;;10.44;100.00
66627;BME280;53498;50.422;14.912;2022-11-02T04:16:50;99648.09;;;10.44;100.00
66627;BME280;53498;50.422;14.912;2022-11-02T04:19:36;99648.97;;;10.47;100.00
66627;BME280;53498;50.422;14.912;2022-11-02T04:22:01;99649.81;;;10.45;100.00
66627;BME280;53498;50.422;14.912;2022-11-02T04:24:45;99650.72;;;10.48;100.00
66627;BME280;53498;50.422;14.912;2022-11-02T04:27:31;99645.50;;;10.47;100.00
66627;BME280;53498;50.422;14.912;2022-11-02T04:30:04;99652.38;;;10.43;100.00
66627;BME280;53498;50.422;14.912;2022-11-02T04:32:37;99658.34;;;10.33;100.00
66627;BME280;53498;50.422;14.912;2022-11-02T04:35:21;99650.63;;;10.37;100.00
66627;BME280;53498;50.422;14.912;2022-11-02T04:37:47;99660.13;;;10.35;100.00
66627;BME280;53498;50.422;14.912;2022-11-02T04:40:34;99660.78;;;10.19;100.00
66627;BME280;53498;50.422;14.912;2022-11-02T04:43:00;99658.94;;;10.10;100.00
66627;BME280;53498;50.422;14.912;2022-11-02T04:45:25;99669.34;;;10.12;100.00
66627;BME280;53498;50.422;14.912;2022-11-02T04:47:51;99666.75;;;10.10;100.00
66627;BME280;53498;50.422;14.912;2022-11-02T04:50:16;99659.78;;;10.06;100.00
66627;BME280;53498;50.422;14.912;2022-11-02T04:52:42;99657.16;;;10.03;100.00
66627;BME280;53498;50.422;14.912;2022-11-02T04:55:08;99655.63;;;10.22;100.00
66627;BME280;53498;50.422;14.912;2022-11-02T04:57:33;99659.88;;;10.17;100.00
66627;BME280;53498;50.422;14.912;2022-11-02T04:59:59;99655.63;;;10.22;100.00
66627;BME280;53498;50.422;14.912;2022-11-02T05:02:25;99658.94;;;10.10;100.00
66627;BME280;53498;50.422;14.912;2022-11-02T05:04:51;99663.25;;;10.07;100.00
66627;BME280;53498;50.422;14.912;2022-11-02T05:07:22;99659.78;;;10.06;100.00
66627;BME280;53498;50.422;14.912;2022-11-02T05:09:51;99665.72;;;9.98;100.00
66627;BME280;53498;50.422;14.912;2022-11-02T05:12:16;99670.19;;;10.08;100.00
66627;BME280;53498;50.422;14.912;2022-11-02T05:14:42;99666.63;;;10.01;100.00
66627;BME280;53498;50.422;14.912;2022-11-02T05:17:07;99670.13;;;10.03;100.00
66627;BME280;53498;50.422;14.912;2022-11-02T05:19:33;99665.63;;;9.90;100.00
66627;BME280;53498;50.422;14.912;2022-11-02T05:21:58;99675.03;;;9.80;100.00
66627;BME280;53498;50.422;14.912;2022-11-02T05:24:24;99672.59;;;9.91;100.00
66627;BME280;53498;50.422;14.912;2022-11-02T05:26:49;99675.94;;;9.84;100.00
66627;BME280;53498;50.422;14.912;2022-11-02T05:29:15;99672.66;;;9.97;100.00
66627;BME280;53498;50.422;14.912;2022-11-02T05:31:40;99683.84;;;9.91;100.00
66627;BME280;53498;50.422;14.912;2022-11-02T05:34:06;99684.84;;;10.03;100.00
66627;BME280;53498;50.422;14.912;2022-11-02T05:36:32;99683.94;;;9.98;100.00
66627;BME280;53498;50.422;14.912;2022-11-02T05:38:57;99683.03;;;9.95;100.00
66627;BME280;53498;50.422;14.912;2022-11-02T05:41:23;99677.88;;;9.97;100.00
66627;BME280;53498;50.422;14.912;2022-11-02T05:43:49;99689.06;;;9.91;100.00
66627;BME280;53498;50.422;14.912;2022-11-02T05:46:14;99683.91;;;9.94;100.00
66627;BME280;53498;50.422;14.912;2022-11-02T05:48:40;99679.59;;;9.96;100.00
66627;BME280;53498;50.422;14.912;2022-11-02T05:51:06;99689.78;;;9.81;100.00
66627;BME280;53498;50.422;14.912;2022-11-02T05:53:33;99676.84;;;9.86;100.00
66627;BME280;53498;50.422;14.912;2022-11-02T05:56:04;99680.22;;;9.80;100.00
66627;BME280;53498;50.422;14.912;2022-11-02T05:58:32;99682.78;;;9.77;100.00
66627;BME280;53498;50.422;14.912;2022-11-02T06:00:59;99679.38;;;9.80;100.00
66627;BME280;53498;50.422;14.912;2022-11-02T06:03:29;99681.09;;;9.79;100.00
66627;BME280;53498;50.422;14.912;2022-11-02T06:06:00;99679.44;;;9.84;100.00
66627;BME280;53498;50.422;14.912;2022-11-02T06:08:33;99669.97;;;9.89;100.00
66627;BME280;53498;50.422;14.912;2022-11-02T06:11:04;99669.88;;;9.82;100.00
66627;BME280;53498;50.422;14.912;2022-11-02T06:13:30;99667.16;;;9.74;100.00
66627;BME280;53498;50.422;14.912;2022-11-02T06:16:02;99662.03;;;9.80;100.00
66627;BME280;53498;50.422;14.912;2022-11-02T06:18:28;99669.13;;;9.92;100.00
66627;BME280;53498;50.422;14.912;2022-11-02T06:20:57;99669.19;;;9.96;100.00
66627;BME280;53498;50.422;14.912;2022-11-02T06:23:24;99675.19;;;9.92;100.00
66627;BME280;53498;50.422;14.912;2022-11-02T06:25:57;99673.69;;;10.10;100.00
66627;BME280;53498;50.422;14.912;2022-11-02T06:28:24;99678.88;;;10.11;100.00
66627;BME280;53498;50.422;14.912;2022-11-02T06:30:50;99678.91;;;10.13;100.00
66627;BME280;53498;50.422;14.912;2022-11-02T06:33:16;99685.78;;;10.06;100.00
66627;BME280;53498;50.422;14.912;2022-11-02T06:35:47;99688.34;;;10.05;100.00
66627;BME280;53498;50.422;14.912;2022-11-02T06:38:13;99690.88;;;9.99;100.00
66627;BME280;53498;50.422;14.912;2022-11-02T06:40:40;99688.31;;;10.02;100.00
66627;BME280;53498;50.422;14.912;2022-11-02T06:43:06;99686.50;;;9.96;100.00
66627;BME280;53498;50.422;14.912;2022-11-02T06:45:31;99704.75;;;10.01;100.00
66627;BME280;53498;50.422;14.912;2022-11-02T06:47:57;99705.44;;;9.86;100.00
66627;BME280;53498;50.422;14.912;2022-11-02T06:50:22;99709.91;;;9.98;100.00
66627;BME280;53498;50.422;14.912;2022-11-02T06:52:50;99704.84;;;10.07;100.00
66627;BME280;53498;50.422;14.912;2022-11-02T06:55:16;99709.97;;;10.02;100.00
66627;BME280;53498;50.422;14.912;2022-11-02T06:57:43;99703.97;;;10.06;100.00
66627;BME280;53498;50.422;14.912;2022-11-02T07:00:13;99712.59;;;10.05;100.00
66627;BME280;53498;50.422;14.912;2022-11-02T07:02:43;99715.28;;;10.10;100.00
66627;BME280;53498;50.422;14.912;2022-11-02T07:05:09;99717.88;;;10.10;100.00
66627;BME280;53498;50.422;14.912;2022-11-02T07:07:35;99723.81;;;10.01;100.00
66627;BME280;53498;50.422;14.912;2022-11-02T07:10:00;99718.81;;;10.16;100.00
66627;BME280;53498;50.422;14.912;2022-11-02T07:12:26;99727.16;;;9.92;100.00
66627;BME280;53498;50.422;14.912;2022-11-02T07:14:51;99725.63;;;10.07;100.00
66627;BME280;53498;50.422;14.912;2022-11-02T07:17:17;99723.03;;;10.07;100.00
66627;BME280;53498;50.422;14.912;2022-11-02T07:19:43;99730.13;;;10.20;100.00
66627;BME280;53498;50.422;14.912;2022-11-02T07:22:08;99730.09;;;10.15;100.00
66627;BME280;53498;50.422;14.912;2022-11-02T07:24:34;99729.94;;;10.05;100.00
66627;BME280;53498;50.422;14.912;2022-11-02T07:26:59;99737.72;;;10.05;100.00
66627;BME280;53498;50.422;14.912;2022-11-02T07:29:25;99735.94;;;10.01;100.00
66627;BME280;53498;50.422;14.912;2022-11-02T07:31:50;99737.81;;;10.11;100.00
66627;BME280;53498;50.422;14.912;2022-11-02T07:34:16;99746.53;;;10.16;100.00
66627;BME280;53498;50.422;14.912;2022-11-02T07:36:41;99742.13;;;10.12;100.00
66627;BME280;53498;50.422;14.912;2022-11-02T07:39:07;99743.03;;;10.12;100.00
66627;BME280;53498;50.422;14.912;2022-11-02T07:41:33;99748.09;;;10.02;100.00
66627;BME280;53498;50.422;14.912;2022-11-02T07:44:02;99740.16;;;9.92;100.00
66627;BME280;53498;50.422;14.912;2022-11-02T07:46:30;99741.03;;;9.91;100.00
66627;BME280;53498;50.422;14.912;2022-11-02T07:48:56;99735.84;;;9.93;100.00
66627;BME280;53498;50.422;14.912;2022-11-02T07:51:23;99732.44;;;9.99;100.00
66627;BME280;53498;50.422;14.912;2022-11-02T07:53:48;99735.91;;;9.98;100.00
66627;BME280;53498;50.422;14.912;2022-11-02T07:56:14;99742.88;;;10.00;100.00
66627;BME280;53498;50.422;14.912;2022-11-02T07:58:40;99736.97;;;10.15;100.00
66627;BME280;53498;50.422;14.912;2022-11-02T08:01:05;99730.88;;;10.10;100.00
66627;BME280;53498;50.422;14.912;2022-11-02T08:03:31;99739.69;;;10.23;100.00
66627;BME280;53498;50.422;14.912;2022-11-02T08:05:59;99736.19;;;10.19;100.00
66627;BME280;53498;50.422;14.912;2022-11-02T08:08:26;99749.38;;;10.33;100.00
66627;BME280;53498;50.422;14.912;2022-11-02T08:10:51;99764.03;;;10.26;100.00
66627;BME280;53498;50.422;14.912;2022-11-02T08:13:19;99763.22;;;10.30;100.00
66627;BME280;53498;50.422;14.912;2022-11-02T08:15:49;99750.91;;;10.20;100.00
66627;BME280;53498;50.422;14.912;2022-11-02T08:18:17;99753.53;;;10.20;100.00
66627;BME280;53498;50.422;14.912;2022-11-02T08:20:43;99764.97;;;10.33;100.00
66627;BME280;53498;50.422;14.912;2022-11-02T08:23:14;99759.97;;;10.48;100.00
66627;BME280;53498;50.422;14.912;2022-11-02T08:25:41;99763.31;;;10.39;100.00
66627;BME280;53498;50.422;14.912;2022-11-02T08:28:14;99762.50;;;10.40;100.00
66627;BME280;53498;50.422;14.912;2022-11-02T08:30:39;99764.97;;;10.31;100.00
66627;BME280;53498;50.422;14.912;2022-11-02T08:33:07;99773.00;;;10.53;100.00
66627;BME280;53498;50.422;14.912;2022-11-02T08:35:36;99766.91;;;10.49;100.00
66627;BME280;53498;50.422;14.912;2022-11-02T08:38:02;99767.00;;;10.57;100.00
66627;BME280;53498;50.422;14.912;2022-11-02T08:40:28;99772.97;;;10.47;100.00
66627;BME280;53498;50.422;14.912;2022-11-02T08:42:58;99768.47;;;10.36;100.00
66627;BME280;53498;50.422;14.912;2022-11-02T08:45:24;99769.72;;;10.66;100.00
66627;BME280;53498;50.422;14.912;2022-11-02T08:47:50;99766.50;;;10.93;100.00
66627;BME280;53498;50.422;14.912;2022-11-02T08:50:16;99770.03;;;11.00;100.00
66627;BME280;53498;50.422;14.912;2022-11-02T08:52:42;99763.13;;;11.02;100.00
66627;BME280;53498;50.422;14.912;2022-11-02T08:55:07;99762.28;;;11.04;100.00
66627;BME280;53498;50.422;14.912;2022-11-02T08:57:48;99756.31;;;11.16;100.00
66627;BME280;53498;50.422;14.912;2022-11-02T09:00:15;99763.84;;;10.85;100.00
66627;BME280;53498;50.422;14.912;2022-11-02T09:02:41;99770.03;;;10.98;100.00
66627;BME280;53498;50.422;14.912;2022-11-02T09:05:07;99773.50;;;10.97;100.00
66627;BME280;53498;50.422;14.912;2022-11-02T09:07:36;99770.09;;;11.04;100.00
66627;BME280;53498;50.422;14.912;2022-11-02T09:10:02;99757.19;;;11.18;100.00
66627;BME280;53498;50.422;14.912;2022-11-02T09:12:28;99756.41;;;11.30;100.00
66627;BME280;53498;50.422;14.912;2022-11-02T09:14:53;99759.91;;;11.33;100.00
66627;BME280;53498;50.422;14.912;2022-11-02T09:17:19;99763.53;;;11.55;100.00
66627;BME280;53498;50.422;14.912;2022-11-02T09:19:44;99759.25;;;11.62;100.00
66627;BME280;53498;50.422;14.912;2022-11-02T09:22:13;99749.75;;;11.67;100.00
66627;BME280;53498;50.422;14.912;2022-11-02T09:24:38;99757.63;;;11.78;100.00
66627;BME280;53498;50.422;14.912;2022-11-02T09:27:07;99759.38;;;11.79;100.00
66627;BME280;53498;50.422;14.912;2022-11-02T09:29:33;99764.69;;;11.93;100.00
66627;BME280;53498;50.422;14.912;2022-11-02T09:31:58;99757.75;;;11.93;100.00
66627;BME280;53498;50.422;14.912;2022-11-02T09:34:24;99756.88;;;11.96;100.00
66627;BME280;53498;50.422;14.912;2022-11-02T09:36:49;99756.09;;;12.15;100.00
66627;BME280;53498;50.422;14.912;2022-11-02T09:39:15;99756.19;;;12.29;100.00
66627;BME280;53498;50.422;14.912;2022-11-02T09:41:55;99752.75;;;12.42;100.00
66627;BME280;53498;50.422;14.912;2022-11-02T09:44:50;99758.88;;;12.52;100.00
66627;BME280;53498;50.422;14.912;2022-11-02T09:47:18;99767.63;;;12.69;100.00
66627;BME280;53498;50.422;14.912;2022-11-02T09:49:45;99752.81;;;12.61;100.00
66627;BME280;53498;50.422;14.912;2022-11-02T09:52:23;99756.31;;;12.73;100.00
66627;BME280;53498;50.422;14.912;2022-11-02T09:54:52;99750.25;;;12.87;100.00
66627;BME280;53498;50.422;14.912;2022-11-02T09:57:30;99744.16;;;13.03;99.25
66627;BME280;53498;50.422;14.912;2022-11-02T09:59:59;99746.78;;;12.95;98.32
66627;BME280;53498;50.422;14.912;2022-11-02T10:03:19;99743.34;;;13.13;99.43
66627;BME280;53498;50.422;14.912;2022-11-02T10:05:45;99736.34;;;13.18;96.45
66627;BME280;53498;50.422;14.912;2022-11-02T10:08:27;99735.50;;;13.41;97.33
66627;BME280;53498;50.422;14.912;2022-11-02T10:13:59;99739.84;;;13.57;93.32
66627;BME280;53498;50.422;14.912;2022-11-02T10:19:22;99736.34;;;13.61;90.67
66627;BME280;53498;50.422;14.912;2022-11-02T10:21:51;99727.63;;;13.62;91.58
66627;BME280;53498;50.422;14.912;2022-11-02T10:24:25;99727.59;;;13.78;90.90
66627;BME280;53498;50.422;14.912;2022-11-02T10:26:56;99727.59;;;13.81;87.38
66627;BME280;53498;50.422;14.912;2022-11-02T10:29:44;99725.88;;;13.80;86.02
66627;BME280;53498;50.422;14.912;2022-11-02T10:32:16;99725.84;;;13.92;86.31
66627;BME280;53498;50.422;14.912;2022-11-02T10:34:45;99723.19;;;14.00;86.66
66627;BME280;53498;50.422;14.912;2022-11-02T10:43:21;99721.44;;;13.91;81.69
66627;BME280;53498;50.422;14.912;2022-11-02T10:48:26;99724.06;;;13.93;84.26
66627;BME280;53498;50.422;14.912;2022-11-02T10:51:02;99727.56;;;13.96;84.48
66627;BME280;53498;50.422;14.912;2022-11-02T10:53:34;99725.75;;;14.17;83.72
66627;BME280;53498;50.422;14.912;2022-11-02T10:56:29;99723.91;;;14.37;83.26
66627;BME280;53498;50.422;14.912;2022-11-02T11:01:25;99723.84;;;14.46;81.14
66627;BME280;53498;50.422;14.912;2022-11-02T11:06:26;99723.91;;;14.34;81.40
66627;BME280;53498;50.422;14.912;2022-11-02T11:08:58;99725.63;;;14.35;82.49
66627;BME280;53498;50.422;14.912;2022-11-02T11:11:29;99720.38;;;14.44;81.55
66627;BME280;53498;50.422;14.912;2022-11-02T11:14:04;99724.56;;;14.79;80.65
66627;BME280;53498;50.422;14.912;2022-11-02T11:19:00;99720.25;;;14.73;79.73
66627;BME280;53498;50.422;14.912;2022-11-02T11:21:37;99711.38;;;14.91;77.55
66627;BME280;53498;50.422;14.912;2022-11-02T11:24:20;99709.75;;;14.72;77.44
66627;BME280;53498;50.422;14.912;2022-11-02T11:27:02;99715.78;;;14.85;78.23
66627;BME280;53498;50.422;14.912;2022-11-02T11:29:34;99715.94;;;14.65;77.88
66627;BME280;53498;50.422;14.912;2022-11-02T11:32:02;99723.78;;;14.68;77.68
66627;BME280;53498;50.422;14.912;2022-11-02T11:34:37;99721.13;;;14.71;78.77
66627;BME280;53498;50.422;14.912;2022-11-02T11:37:11;99710.63;;;14.74;78.67
66627;BME280;53498;50.422;14.912;2022-11-02T11:39:41;99714.16;;;14.73;79.78
66627;BME280;53498;50.422;14.912;2022-11-02T11:42:19;99704.56;;;14.66;79.12
66627;BME280;53498;50.422;14.912;2022-11-02T11:45:02;99704.69;;;14.38;79.67
66627;BME280;53498;50.422;14.912;2022-11-02T11:47:38;99706.53;;;14.18;81.69
66627;BME280;53498;50.422;14.912;2022-11-02T11:50:15;99709.09;;;14.30;80.53
66627;BME280;53498;50.422;14.912;2022-11-02T11:52:42;99700.41;;;14.25;80.50
66627;BME280;53498;50.422;14.912;2022-11-02T11:55:26;99691.63;;;14.32;80.43
66627;BME280;53498;50.422;14.912;2022-11-02T12:00:36;99703.06;;;14.09;81.96
66627;BME280;53498;50.422;14.912;2022-11-02T12:03:10;99703.94;;;14.10;82.63
66627;BME280;53498;50.422;14.912;2022-11-02T12:13:54;99688.28;;;14.02;83.39
66627;BME280;53498;50.422;14.912;2022-11-02T12:33:00;99672.44;;;14.36;80.25
66627;BME280;53498;50.422;14.912;2022-11-02T12:35:36;99674.22;;;14.29;79.63
66627;BME280;53498;50.422;14.912;2022-11-02T12:40:58;99672.50;;;14.24;79.52
66627;BME280;53498;50.422;14.912;2022-11-02T12:46:14;99667.31;;;14.13;79.71
66627;BME280;53498;50.422;14.912;2022-11-02T12:48:47;99664.75;;;14.05;79.24
66627;BME280;53498;50.422;14.912;2022-11-02T12:51:18;99667.28;;;14.16;80.89
66627;BME280;53498;50.422;14.912;2022-11-02T12:53:50;99667.28;;;14.21;79.84
66627;BME280;53498;50.422;14.912;2022-11-02T12:56:26;99666.41;;;14.22;79.96
66627;BME280;53498;50.422;14.912;2022-11-02T12:58:55;99665.53;;;14.23;79.58
66627;BME280;53498;50.422;14.912;2022-11-02T13:01:35;99663.78;;;14.26;79.55
66627;BME280;53498;50.422;14.912;2022-11-02T13:04:22;99662.84;;;14.29;78.88
66627;BME280;53498;50.422;14.912;2022-11-02T13:06:55;99655.03;;;14.24;78.06
66627;BME280;53498;50.422;14.912;2022-11-02T13:12:01;99661.13;;;14.28;79.01
66627;BME280;53498;50.422;14.912;2022-11-02T13:14:37;99654.16;;;14.27;79.65
66627;BME280;53498;50.422;14.912;2022-11-02T13:19:46;99646.31;;;14.30;78.18
66627;BME280;53498;50.422;14.912;2022-11-02T13:22:14;99654.13;;;14.36;78.26
66627;BME280;53498;50.422;14.912;2022-11-02T13:24:46;99647.03;;;14.47;78.85
66627;BME280;53498;50.422;14.912;2022-11-02T13:27:30;99656.69;;;14.41;77.02
66627;BME280;53498;50.422;14.912;2022-11-02T13:30:02;99650.59;;;14.42;77.81
66627;BME280;53498;50.422;14.912;2022-11-02T13:32:38;99655.78;;;14.49;75.63
66627;BME280;53498;50.422;14.912;2022-11-02T13:35:18;99659.31;;;14.38;78.17
66627;BME280;53498;50.422;14.912;2022-11-02T13:37:48;99645.38;;;14.37;76.23
66627;BME280;53498;50.422;14.912;2022-11-02T13:40:22;99655.00;;;14.30;77.66
66627;BME280;53498;50.422;14.912;2022-11-02T13:48:30;99652.47;;;14.23;77.65
66627;BME280;53498;50.422;14.912;2022-11-02T13:51:04;99656.84;;;14.10;77.63
66627;BME280;53498;50.422;14.912;2022-11-02T13:53:35;99651.66;;;14.02;79.02
66627;BME280;53498;50.422;14.912;2022-11-02T13:56:09;99664.78;;;13.96;78.98
66627;BME280;53498;50.422;14.912;2022-11-02T13:58:40;99662.19;;;13.92;80.26
66627;BME280;53498;50.422;14.912;2022-11-02T14:01:10;99675.25;;;13.95;80.17
66627;BME280;53498;50.422;14.912;2022-11-02T14:03:44;99677.84;;;13.99;80.41
66627;BME280;53498;50.422;14.912;2022-11-02T14:06:14;99676.91;;;14.09;80.33
66627;BME280;53498;50.422;14.912;2022-11-02T14:08:47;99682.13;;;14.12;80.50
66627;BME280;53498;50.422;14.912;2022-11-02T14:29:47;99671.72;;;14.00;81.35
66627;BME280;53498;50.422;14.912;2022-11-02T14:40:30;99670.97;;;13.68;82.24
66627;BME280;53498;50.422;14.912;2022-11-02T14:48:50;99671.78;;;13.82;81.09
66627;BME280;53498;50.422;14.912;2022-11-02T14:54:05;99672.66;;;13.87;79.48
66627;BME280;53498;50.422;14.912;2022-11-02T14:57:02;99666.63;;;13.73;79.26
66627;BME280;53498;50.422;14.912;2022-11-02T14:59:38;99673.59;;;13.64;80.36
66627;BME280;53498;50.422;14.912;2022-11-02T15:04:52;99680.56;;;13.59;77.56
66627;BME280;53498;50.422;14.912;2022-11-02T15:07:40;99679.75;;;13.48;78.23
66627;BME280;53498;50.422;14.912;2022-11-02T15:13:33;99678.91;;;13.29;79.24
66627;BME280;53498;50.422;14.912;2022-11-02T15:18:43;99691.94;;;13.12;79.33